Danville, IL (61832)

10:29 AM CDT on August 30, 2016 (GMT -0500)
Danville Area Community College | | Change Station

Elev 656 ft 40.13 °N, 87.59 °W | Updated 1 minute ago

Clear
Clear
81.3 °F
Feels Like 85 °F
N
6.0
Wind Variable Wind from SW
Gusts 7.0 mph

Today
High -- | Low -- °F
--% Chance of Precip.
Yesterday
High -- | Low -- °F
Precip. -- in
Pressure 30.14 in
Visibility 7.0 miles
Clouds Clear
Heat Index 85 °F
Dew Point 71 °F
Humidity 71%
Rainfall 0.00 in
Snow Depth Not available.
6:16 AM 7:24 PM
Waning Crescent, 3% visible
METAR KDNV 301515Z AUTO 33005KT 7SM CLR 27/21 A3014 RMK AO2 T02650211
Pressure 30.14 in
Visibility 7.0 miles
Clouds Clear
Heat Index 85 °F
Dew Point 71 °F
Humidity 71%
Rainfall 0.00 in
Snow Depth Not available.
6:16 AM 7:24 PM
Waning Crescent, 3% visible
METAR KDNV 301515Z AUTO 33005KT 7SM CLR 27/21 A3014 RMK AO2 T02650211

10-Day Weather Forecast

Almanac

Astronomy

Aug. 30, 2016 Rise Set
Actual Time
Civil Twilight
Nautical Twilight
Astronomical Twilight
Moon
Length of Visible Light
Length of Day
Tomorrow will be .
, % of the Moon is Illuminated

Today's Extremes

State Highs State Lows

Community

WunderPhotos

Upload Photos

1,935,855 photos uploaded!

WunderBlog® & News

Nearby

Air Quality

  Air Quality AQ Index Pollutant
Not available.

Snow Depth

Station Depth Elevation

Earthquake Activity

City Distance Mag. Time & Date
Minimum magnitude displayed is 2.5.

Coastal Water Temperatures

Place Temperature

Stations

Nearby Weather Stations

Station Location Temp. Windchill Dew Point Humidity Wind Precip. Elev Updated Type
                   

Watches & Warnings

There are currently no watches in effect.